createdAt,value
2023-05-24T00:00:12.847Z,18.31
2023-05-24T03:01:46.828Z,17.41
2023-05-24T03:04:14.813Z,17.45
2023-05-24T03:06:43.220Z,17.46
2023-05-24T03:09:11.560Z,17.46
2023-05-24T03:11:39.373Z,17.47
2023-05-24T03:14:06.592Z,17.47
2023-05-24T03:16:34.604Z,17.46
2023-05-24T03:19:08.439Z,17.47
2023-05-24T03:21:38.878Z,17.47
2023-05-24T03:24:06.329Z,17.46
2023-05-24T03:26:34.123Z,17.46
2023-05-24T03:29:02.129Z,17.47
2023-05-24T03:31:36.756Z,17.45
2023-05-24T03:34:04.797Z,17.45
2023-05-24T03:36:33.471Z,17.46
2023-05-24T03:39:01.151Z,17.48
2023-05-24T03:41:31.280Z,17.48
2023-05-24T03:44:01.396Z,17.47
2023-05-24T03:46:30.761Z,17.49
2023-05-24T03:48:58.820Z,17.49
2023-05-24T03:51:29.612Z,17.50
2023-05-24T03:53:57.635Z,17.55
2023-05-24T03:56:27.115Z,17.64
2023-05-24T03:58:55.212Z,17.68
2023-05-24T04:01:33.508Z,17.76
2023-05-24T04:04:02.799Z,17.87
2023-05-24T04:06:30.677Z,17.97
2023-05-24T04:09:01.287Z,18.07
2023-05-24T04:11:29.955Z,18.17
2023-05-24T04:13:58.639Z,18.27
2023-05-24T04:16:27.932Z,18.32
2023-05-24T04:18:56.876Z,18.44
2023-05-24T04:21:25.255Z,18.54
2023-05-24T04:23:55.949Z,18.61
2023-05-24T04:26:23.824Z,18.65
2023-05-24T04:28:52.446Z,18.74
2023-05-24T04:31:20.558Z,18.82
2023-05-24T04:33:48.381Z,18.87
2023-05-24T04:36:17.229Z,18.93
2023-05-24T04:38:45.989Z,19.06
2023-05-24T04:41:13.454Z,19.18
2023-05-24T04:43:40.912Z,19.36
2023-05-24T04:46:09.551Z,19.54
2023-05-24T04:48:37.809Z,20.21
2023-05-24T04:51:05.763Z,22.19
2023-05-24T04:53:33.672Z,24.49
2023-05-24T04:56:01.453Z,26.71
2023-05-24T04:58:28.448Z,28.81
2023-05-24T05:00:56.235Z,30.70
2023-05-24T05:03:24.154Z,32.20
2023-05-24T05:05:52.349Z,33.64
2023-05-24T05:08:20.586Z,34.87
2023-05-24T05:10:48.802Z,35.71
2023-05-24T05:13:16.710Z,36.24
2023-05-24T05:15:44.665Z,36.53
2023-05-24T05:18:12.089Z,36.75
2023-05-24T05:20:40.025Z,36.71
2023-05-24T05:23:07.976Z,37.09
2023-05-24T05:25:36.048Z,37.57
2023-05-24T05:28:03.942Z,38.07
2023-05-24T05:30:31.211Z,37.51
2023-05-24T05:32:59.377Z,35.99
2023-05-24T05:35:27.562Z,34.63
2023-05-24T05:37:55.234Z,33.58
2023-05-24T05:40:22.900Z,32.97
2023-05-24T05:42:50.904Z,33.19
2023-05-24T05:45:18.744Z,32.83
2023-05-24T05:47:46.104Z,31.98
2023-05-24T05:50:13.623Z,31.18
2023-05-24T05:52:41.372Z,30.51
2023-05-24T05:55:08.946Z,29.79
2023-05-24T05:57:36.897Z,29.17
2023-05-24T06:00:05.048Z,28.65
2023-05-24T06:02:40.332Z,28.12
2023-05-24T06:05:08.576Z,27.65
2023-05-24T06:07:37.516Z,27.30
2023-05-24T06:10:06.084Z,26.99
2023-05-24T06:12:34.301Z,26.78
2023-05-24T06:15:02.668Z,26.55
2023-05-24T06:17:30.609Z,26.35
2023-05-24T06:19:58.451Z,26.21
2023-05-24T06:22:28.338Z,26.09
2023-05-24T06:24:56.205Z,26.01
2023-05-24T06:27:23.656Z,25.94
2023-05-24T06:29:51.026Z,25.92
2023-05-24T06:32:18.473Z,25.83
2023-05-24T06:34:47.087Z,25.70
2023-05-24T06:37:17.351Z,25.63
2023-05-24T06:39:45.494Z,25.56
2023-05-24T06:42:12.746Z,25.52
2023-05-24T06:44:44.797Z,25.39
2023-05-24T06:47:13.268Z,25.38
2023-05-24T06:49:41.896Z,25.39
2023-05-24T06:52:09.153Z,25.39
2023-05-24T06:54:36.905Z,25.28
2023-05-24T06:57:04.847Z,25.15
2023-05-24T06:59:32.236Z,25.17
2023-05-24T07:02:01.912Z,25.30
2023-05-24T07:04:31.978Z,25.45
2023-05-24T07:06:59.881Z,25.54
2023-05-24T07:09:27.749Z,25.55
2023-05-24T07:11:55.019Z,25.55
2023-05-24T07:14:23.944Z,25.53
2023-05-24T07:16:51.161Z,25.55
2023-05-24T07:19:17.926Z,25.53
2023-05-24T07:21:45.573Z,25.57
2023-05-24T07:24:15.452Z,25.63
2023-05-24T07:26:43.981Z,25.64
2023-05-24T07:29:11.794Z,25.66
2023-05-24T07:31:39.298Z,25.65
2023-05-24T07:34:07.201Z,25.72
2023-05-24T07:36:35.127Z,25.78
2023-05-24T07:39:06.034Z,25.82
2023-05-24T07:41:34.166Z,25.83
2023-05-24T07:44:02.193Z,25.74
2023-05-24T07:46:29.811Z,25.77
2023-05-24T07:48:56.916Z,25.81
2023-05-24T07:51:24.594Z,25.84
2023-05-24T07:53:52.707Z,25.76
2023-05-24T07:56:21.349Z,25.65
2023-05-24T07:58:51.275Z,25.53
2023-05-24T08:01:19.223Z,25.42
2023-05-24T08:03:47.420Z,25.37
2023-05-24T08:06:14.521Z,25.42
2023-05-24T08:08:42.788Z,25.49
2023-05-24T08:11:10.579Z,25.54
2023-05-24T08:13:38.438Z,25.62
2023-05-24T08:16:06.443Z,25.60
2023-05-24T08:18:35.346Z,25.56
2023-05-24T08:21:03.715Z,25.56
2023-05-24T08:23:31.680Z,25.61
2023-05-24T08:25:59.387Z,25.68
2023-05-24T08:28:28.362Z,25.66
2023-05-24T08:31:00.450Z,25.68
2023-05-24T08:33:29.483Z,25.77
2023-05-24T08:35:56.792Z,25.88
2023-05-24T08:38:23.986Z,25.96
2023-05-24T08:40:52.282Z,26.03
2023-05-24T08:43:21.123Z,26.10
2023-05-24T08:45:49.954Z,26.13
2023-05-24T08:48:18.717Z,26.09
2023-05-24T08:50:47.092Z,26.11
2023-05-24T08:53:15.372Z,26.12
2023-05-24T08:55:43.524Z,26.13
2023-05-24T08:58:12.046Z,26.12
2023-05-24T09:00:40.355Z,26.08
2023-05-24T09:03:09.644Z,26.04
2023-05-24T09:05:37.941Z,26.03
2023-05-24T09:08:05.979Z,26.09
2023-05-24T09:10:45.027Z,26.11
2023-05-24T09:13:23.598Z,26.16
2023-05-24T09:15:51.527Z,26.15
2023-05-24T09:18:20.292Z,26.18
2023-05-24T09:20:47.788Z,26.26
2023-05-24T09:23:15.986Z,26.35
2023-05-24T09:25:47.822Z,26.37
2023-05-24T09:28:17.376Z,26.46
2023-05-24T09:30:45.992Z,26.65
2023-05-24T09:33:14.097Z,26.89
2023-05-24T09:35:42.313Z,27.15
2023-05-24T09:38:19.103Z,27.34
2023-05-24T09:40:46.758Z,27.36
2023-05-24T09:43:14.625Z,27.18
2023-05-24T09:45:46.394Z,27.00
2023-05-24T09:48:15.293Z,27.01
2023-05-24T09:50:47.159Z,27.08
2023-05-24T09:53:16.890Z,27.14
2023-05-24T09:55:44.296Z,27.21
2023-05-24T09:58:12.419Z,27.31
2023-05-24T10:00:43.958Z,27.48
2023-05-24T10:03:14.927Z,27.67
2023-05-24T10:05:45.225Z,27.79
2023-05-24T10:08:14.821Z,27.92
2023-05-24T10:10:44.592Z,27.94
2023-05-24T10:13:16.035Z,28.02
2023-05-24T10:15:45.185Z,28.13
2023-05-24T10:18:14.203Z,28.13
2023-05-24T10:20:43.606Z,28.22
2023-05-24T10:23:17.061Z,28.29
2023-05-24T10:25:48.400Z,28.34
2023-05-24T10:28:21.004Z,28.41
2023-05-24T10:30:49.254Z,28.39
2023-05-24T10:33:18.924Z,28.40
2023-05-24T10:35:47.661Z,28.40
2023-05-24T10:38:15.461Z,28.42
2023-05-24T10:40:44.227Z,28.50
2023-05-24T10:43:12.229Z,28.63
2023-05-24T10:45:41.386Z,28.66
2023-05-24T10:48:13.401Z,28.65
2023-05-24T10:50:44.073Z,28.64
2023-05-24T10:53:14.474Z,28.57
2023-05-24T10:56:01.288Z,28.48
2023-05-24T10:58:48.419Z,28.44
2023-05-24T11:01:30.142Z,28.37
2023-05-24T11:04:07.923Z,28.24
2023-05-24T11:06:45.432Z,28.02
2023-05-24T11:09:14.759Z,27.96
2023-05-24T11:11:54.896Z,27.93
2023-05-24T11:14:24.228Z,27.90
2023-05-24T11:16:52.444Z,27.97
2023-05-24T11:19:21.297Z,28.04
2023-05-24T11:21:58.653Z,28.04
2023-05-24T11:24:28.210Z,27.99
2023-05-24T11:26:56.891Z,27.94
2023-05-24T11:29:25.069Z,27.89
2023-05-24T11:31:54.454Z,27.88
2023-05-24T11:34:24.247Z,27.92
2023-05-24T11:36:57.004Z,27.93
2023-05-24T11:39:29.081Z,27.90
2023-05-24T11:41:58.047Z,27.87
2023-05-24T11:44:28.169Z,27.84
2023-05-24T11:47:00.409Z,27.87
2023-05-24T11:49:30.049Z,27.88
2023-05-24T11:51:59.032Z,27.91
2023-05-24T11:54:28.272Z,27.95
2023-05-24T11:56:56.238Z,27.94
2023-05-24T11:59:25.679Z,27.92
2023-05-24T12:02:02.928Z,27.92
2023-05-24T12:04:34.186Z,27.89
2023-05-24T12:07:01.979Z,27.87
2023-05-24T12:09:29.958Z,27.81
2023-05-24T12:11:58.556Z,27.78
2023-05-24T12:14:28.714Z,27.66
2023-05-24T12:16:57.106Z,27.63
2023-05-24T12:19:33.138Z,27.61
2023-05-24T12:22:07.641Z,27.59
2023-05-24T12:24:37.469Z,27.59
2023-05-24T12:27:09.788Z,27.60
2023-05-24T12:29:42.252Z,27.57
2023-05-24T12:32:14.321Z,27.51
2023-05-24T12:34:44.785Z,27.43
2023-05-24T12:37:14.538Z,27.37
2023-05-24T12:39:44.238Z,27.23
2023-05-24T12:42:13.256Z,27.16
2023-05-24T12:44:41.736Z,27.09
2023-05-24T12:47:09.550Z,27.04
2023-05-24T12:49:37.618Z,26.99
2023-05-24T12:52:06.730Z,26.93
2023-05-24T12:54:35.540Z,26.94
2023-05-24T12:57:03.815Z,26.90
2023-05-24T12:59:34.233Z,26.83
2023-05-24T13:02:02.569Z,26.80
2023-05-24T13:04:33.714Z,26.85
2023-05-24T13:07:03.119Z,26.87
2023-05-24T13:09:30.974Z,26.90
2023-05-24T13:11:59.604Z,26.97
2023-05-24T13:14:28.464Z,26.99
2023-05-24T13:16:56.647Z,27.06
2023-05-24T13:19:24.871Z,27.14
2023-05-24T13:21:53.848Z,27.28
2023-05-24T13:24:22.328Z,27.40
2023-05-24T13:26:53.773Z,27.51
2023-05-24T13:29:36.676Z,27.63
2023-05-24T13:32:04.855Z,27.63
2023-05-24T13:34:33.330Z,27.57
2023-05-24T13:37:04.240Z,27.56
2023-05-24T13:39:32.281Z,27.56
2023-05-24T13:42:00.909Z,27.58
2023-05-24T13:44:30.598Z,27.63
2023-05-24T13:46:59.351Z,27.70
2023-05-24T13:49:29.066Z,27.73
2023-05-24T13:51:58.423Z,27.77
2023-05-24T13:54:27.738Z,27.77
2023-05-24T13:56:57.440Z,27.79
2023-05-24T13:59:27.524Z,27.87
2023-05-24T14:01:55.572Z,27.86
2023-05-24T14:04:24.663Z,27.87
2023-05-24T14:06:53.303Z,27.88
2023-05-24T14:09:23.603Z,27.87
2023-05-24T14:11:53.514Z,27.82
2023-05-24T14:14:58.637Z,27.76
2023-05-24T14:17:12.408Z,27.67
2023-05-24T14:19:41.670Z,27.56
2023-05-24T14:22:11.929Z,27.46
2023-05-24T14:24:41.453Z,27.38
2023-05-24T14:27:09.105Z,27.34
2023-05-24T14:29:36.579Z,27.29
2023-05-24T14:32:06.154Z,27.25
2023-05-24T14:34:34.245Z,27.20
2023-05-24T14:37:02.360Z,27.19
2023-05-24T14:39:30.652Z,27.18
2023-05-24T14:41:58.552Z,27.14
2023-05-24T14:44:27.965Z,27.10
2023-05-24T14:46:56.003Z,27.07
2023-05-24T14:49:23.821Z,27.05
2023-05-24T14:51:51.167Z,27.07
2023-05-24T14:54:18.942Z,27.03
2023-05-24T14:56:46.632Z,26.97
2023-05-24T14:59:14.755Z,26.91
2023-05-24T15:01:42.692Z,26.81
2023-05-24T15:04:10.923Z,26.76
2023-05-24T15:06:39.942Z,26.76
2023-05-24T15:09:07.936Z,26.72
2023-05-24T15:11:36.109Z,26.64
2023-05-24T15:14:03.179Z,26.53
2023-05-24T15:16:30.603Z,26.50
2023-05-24T15:18:58.380Z,26.52
2023-05-24T15:21:25.683Z,26.52
2023-05-24T15:23:53.736Z,26.51
2023-05-24T15:26:22.753Z,26.49
2023-05-24T15:28:51.181Z,26.49
2023-05-24T15:31:18.978Z,26.53
2023-05-24T15:33:46.877Z,26.54
2023-05-24T15:36:16.968Z,26.59
2023-05-24T15:38:45.044Z,26.67
2023-05-24T15:41:12.948Z,26.73
2023-05-24T15:43:41.146Z,26.76
2023-05-24T15:46:09.577Z,26.77
2023-05-24T15:48:37.655Z,26.76
2023-05-24T15:51:58.046Z,26.74
2023-05-24T15:53:56.306Z,26.69
2023-05-24T15:56:24.323Z,26.67
2023-05-24T15:58:52.470Z,26.67
2023-05-24T16:01:20.238Z,26.63
2023-05-24T16:03:48.608Z,26.57
2023-05-24T16:06:16.749Z,26.53
2023-05-24T16:08:44.693Z,26.46
2023-05-24T16:11:12.938Z,26.41
2023-05-24T16:13:41.084Z,26.35
2023-05-24T16:16:09.099Z,26.31
2023-05-24T16:18:36.853Z,26.26
2023-05-24T16:21:04.383Z,26.23
2023-05-24T16:23:32.282Z,26.16
2023-05-24T16:26:00.765Z,26.08
2023-05-24T16:28:28.444Z,26.01
2023-05-24T16:30:57.036Z,25.99
2023-05-24T16:33:25.112Z,25.94
2023-05-24T16:35:55.312Z,25.89
2023-05-24T16:38:23.597Z,25.85
2023-05-24T16:40:52.145Z,25.82
2023-05-24T16:43:19.457Z,25.78
2023-05-24T16:45:46.488Z,25.75
2023-05-24T16:48:14.316Z,25.74
2023-05-24T16:50:42.444Z,25.75
2023-05-24T16:53:15.187Z,25.75
2023-05-24T16:55:43.871Z,25.74
2023-05-24T16:58:11.867Z,25.72
2023-05-24T17:00:39.898Z,25.70
2023-05-24T17:03:08.092Z,25.68
2023-05-24T17:05:35.579Z,25.64
2023-05-24T17:08:03.544Z,25.61
2023-05-24T17:10:31.411Z,25.56
2023-05-24T17:12:59.447Z,25.50
2023-05-24T17:15:27.967Z,25.44
2023-05-24T17:17:55.794Z,25.37
2023-05-24T17:20:24.088Z,25.27
2023-05-24T17:22:52.979Z,25.13
2023-05-24T17:25:22.129Z,24.98
2023-05-24T17:27:50.770Z,24.87
2023-05-24T17:30:20.245Z,24.72
2023-05-24T17:32:48.188Z,24.57
2023-05-24T17:35:15.930Z,24.42
2023-05-24T17:37:43.133Z,24.31
2023-05-24T17:40:11.699Z,24.16
2023-05-24T17:42:39.776Z,24.00
2023-05-24T17:45:08.883Z,23.83
2023-05-24T17:47:36.522Z,23.66
2023-05-24T17:50:04.612Z,23.55
2023-05-24T17:52:33.059Z,23.44
2023-05-24T17:55:01.188Z,23.30
2023-05-24T17:57:30.319Z,23.13
2023-05-24T17:59:58.578Z,23.03
2023-05-24T18:02:25.951Z,22.89
2023-05-24T18:04:55.076Z,22.82
2023-05-24T18:07:23.936Z,22.76
2023-05-24T18:09:51.986Z,22.69
2023-05-24T18:12:20.552Z,22.67
2023-05-24T18:14:48.763Z,22.63
2023-05-24T18:17:16.635Z,22.57
2023-05-24T18:19:44.333Z,22.48
2023-05-24T18:22:12.229Z,22.37
2023-05-24T18:24:40.959Z,22.27
2023-05-24T18:27:19.694Z,22.19
2023-05-24T18:29:47.340Z,22.14
2023-05-24T18:32:16.188Z,22.09
2023-05-24T18:34:44.728Z,22.06
2023-05-24T18:37:13.902Z,22.03
2023-05-24T18:40:02.530Z,21.97
2023-05-24T18:42:37.530Z,21.84
2023-05-24T18:45:27.977Z,21.70
2023-05-24T18:47:55.581Z,21.64
2023-05-24T18:50:23.623Z,21.59
2023-05-24T18:52:56.973Z,21.52
2023-05-24T18:55:29.724Z,21.50
2023-05-24T18:58:13.693Z,21.47
2023-05-24T19:00:52.856Z,21.43
2023-05-24T19:03:25.787Z,21.39
2023-05-24T19:05:53.582Z,21.33
2023-05-24T19:08:22.325Z,21.32
2023-05-24T19:10:50.981Z,21.27
2023-05-24T19:13:20.301Z,21.23
2023-05-24T19:15:49.248Z,21.19
2023-05-24T19:18:16.914Z,21.10
2023-05-24T19:20:44.575Z,21.03
2023-05-24T19:23:12.187Z,20.95
2023-05-24T19:25:58.608Z,20.92
2023-05-24T19:28:29.010Z,20.92
2023-05-24T19:31:36.203Z,20.92
2023-05-24T19:34:03.997Z,20.89
2023-05-24T19:36:32.637Z,20.83
2023-05-24T19:39:01.985Z,20.84
2023-05-24T19:41:31.132Z,20.82
2023-05-24T19:44:00.452Z,20.77
2023-05-24T19:46:29.732Z,20.76
2023-05-24T19:48:58.427Z,20.68
2023-05-24T19:51:26.617Z,20.65
2023-05-24T19:53:56.411Z,20.60
2023-05-24T19:56:27.357Z,20.53
2023-05-24T19:58:56.229Z,20.42
2023-05-24T20:01:24.864Z,20.30
2023-05-24T20:03:53.846Z,20.20
2023-05-24T20:06:22.412Z,20.18
2023-05-24T20:08:51.065Z,20.11
2023-05-24T20:11:20.167Z,20.04
2023-05-24T20:13:50.641Z,19.95
2023-05-24T20:16:21.212Z,19.91
2023-05-24T20:18:48.617Z,19.93
2023-05-24T20:21:17.963Z,19.89
2023-05-24T20:23:50.326Z,19.85
2023-05-24T20:26:18.096Z,19.82
2023-05-24T20:28:45.993Z,19.76
2023-05-24T20:31:14.104Z,19.69
2023-05-24T20:33:43.796Z,19.65
2023-05-24T20:36:17.373Z,19.59
2023-05-24T20:38:48.075Z,19.54
2023-05-24T20:41:18.179Z,19.43
2023-05-24T20:43:47.512Z,19.31
2023-05-24T20:46:19.174Z,19.30
2023-05-24T20:48:49.275Z,19.27
2023-05-24T20:51:19.063Z,19.21
2023-05-24T20:53:48.931Z,19.18
2023-05-24T20:56:18.205Z,19.15
2023-05-24T20:58:46.695Z,19.11
2023-05-24T21:01:16.998Z,19.10
2023-05-24T21:03:45.633Z,19.18
2023-05-24T21:06:16.667Z,19.24
2023-05-24T21:08:43.645Z,19.25
2023-05-24T21:11:11.022Z,19.20
2023-05-24T21:13:38.469Z,19.15
2023-05-24T21:16:05.986Z,19.11
2023-05-24T21:18:36.950Z,19.07
2023-05-24T21:21:06.436Z,19.02
2023-05-24T21:23:34.960Z,18.95
2023-05-24T21:26:02.022Z,18.90
2023-05-24T21:28:29.544Z,18.86
2023-05-24T21:30:57.873Z,18.81
2023-05-24T21:33:26.883Z,18.75
2023-05-24T21:35:54.543Z,18.70
2023-05-24T21:38:22.449Z,18.67
2023-05-24T21:40:50.525Z,18.64
2023-05-24T21:43:17.595Z,18.62
2023-05-24T21:45:46.203Z,18.60
2023-05-24T21:48:13.196Z,18.53
2023-05-24T21:50:40.589Z,18.46
2023-05-24T21:53:07.617Z,18.40
2023-05-24T21:55:35.016Z,18.36
2023-05-24T21:58:02.100Z,18.32
2023-05-24T22:00:29.324Z,18.27
2023-05-24T22:02:56.713Z,18.19
2023-05-24T22:05:27.489Z,18.13
2023-05-24T22:07:55.729Z,18.03
2023-05-24T22:10:22.803Z,17.93
2023-05-24T22:12:50.280Z,17.85
2023-05-24T22:15:17.611Z,17.77
2023-05-24T22:17:44.656Z,17.73
2023-05-24T22:20:12.623Z,17.66
2023-05-24T22:22:48.277Z,17.59
2023-05-24T22:25:20.506Z,17.52
2023-05-24T22:27:48.713Z,17.49
2023-05-24T22:30:16.791Z,17.43
2023-05-24T22:32:44.421Z,17.37
2023-05-24T22:35:12.302Z,17.33
2023-05-24T22:37:40.138Z,17.35
2023-05-24T22:40:08.258Z,17.32
2023-05-24T22:42:35.790Z,17.29
2023-05-24T22:45:03.980Z,17.30
2023-05-24T22:47:33.188Z,17.31
2023-05-24T22:50:02.231Z,17.30
2023-05-24T22:52:33.354Z,17.25
2023-05-24T22:55:00.649Z,17.24
2023-05-24T22:57:28.359Z,17.24
2023-05-24T22:59:55.594Z,17.25
2023-05-24T23:02:22.843Z,17.25
2023-05-24T23:04:50.284Z,17.20
2023-05-24T23:07:21.501Z,17.16
2023-05-24T23:09:49.872Z,17.07
2023-05-24T23:12:18.183Z,17.01
2023-05-24T23:14:46.416Z,16.90
2023-05-24T23:17:14.400Z,16.80
2023-05-24T23:19:43.074Z,16.73
2023-05-24T23:22:11.972Z,16.69
2023-05-24T23:24:41.776Z,16.66
2023-05-24T23:27:09.864Z,16.58
2023-05-24T23:29:41.026Z,16.50
2023-05-24T23:32:09.594Z,16.45
2023-05-24T23:34:37.570Z,16.34
2023-05-24T23:37:05.576Z,16.32
2023-05-24T23:39:32.563Z,16.31
2023-05-24T23:42:02.698Z,16.30
2023-05-24T23:44:31.153Z,16.24
2023-05-24T23:46:58.978Z,16.21
2023-05-24T23:49:26.746Z,16.22
2023-05-24T23:51:55.109Z,16.25
2023-05-24T23:54:23.162Z,16.25
2023-05-24T23:56:51.170Z,16.17
2023-05-24T23:59:19.242Z,16.15
